sensor_id;sensor_type;location;lat;lon;timestamp;pressure;altitude;pressure_sealevel;temperature;humidity
78459;BME280;67753;42.684;23.330;2023-02-15T00:01:54;96171.19;;;1.72;80.91
78459;BME280;67753;42.684;23.330;2023-02-15T00:03:56;96177.56;;;1.71;81.03
78459;BME280;67753;42.684;23.330;2023-02-15T00:05:58;96184.69;;;1.71;80.97
78459;BME280;67753;42.684;23.330;2023-02-15T00:08:00;96177.56;;;1.66;81.51
78459;BME280;67753;42.684;23.330;2023-02-15T00:10:05;96179.66;;;1.64;81.67
78459;BME280;67753;42.684;23.330;2023-02-15T00:12:07;96185.75;;;1.60;81.76
78459;BME280;67753;42.684;23.330;2023-02-15T00:14:12;96183.38;;;1.63;81.77
78459;BME280;67753;42.684;23.330;2023-02-15T00:16:15;96193.44;;;1.56;82.27
78459;BME280;67753;42.684;23.330;2023-02-15T00:18:17;96188.69;;;1.53;82.36
78459;BME280;67753;42.684;23.330;2023-02-15T00:20:19;96196.09;;;1.51;82.48
78459;BME280;67753;42.684;23.330;2023-02-15T00:22:21;96198.69;;;1.66;82.35
78459;BME280;67753;42.684;23.330;2023-02-15T00:24:23;96194.47;;;1.70;81.79
78459;BME280;67753;42.684;23.330;2023-02-15T00:26:28;96188.16;;;1.56;82.31
78459;BME280;67753;42.684;23.330;2023-02-15T00:28:30;96189.19;;;1.55;82.81
78459;BME280;67753;42.684;23.330;2023-02-15T00:30:32;96192.38;;;1.62;82.55
78459;BME280;67753;42.684;23.330;2023-02-15T00:32:34;96197.13;;;1.55;82.73
78459;BME280;67753;42.684;23.330;2023-02-15T00:34:36;96190.00;;;1.50;83.24
78459;BME280;67753;42.684;23.330;2023-02-15T00:36:39;96192.38;;;1.52;83.10
78459;BME280;67753;42.684;23.330;2023-02-15T00:38:41;96192.41;;;1.42;83.80
78459;BME280;67753;42.684;23.330;2023-02-15T00:40:44;96199.25;;;1.53;83.25
78459;BME280;67753;42.684;23.330;2023-02-15T00:42:54;96198.72;;;1.56;82.91
78459;BME280;67753;42.684;23.330;2023-02-15T00:44:59;96200.31;;;1.47;83.08
78459;BME280;67753;42.684;23.330;2023-02-15T00:47:00;96198.19;;;1.49;83.17
78459;BME280;67753;42.684;23.330;2023-02-15T00:49:03;96193.47;;;1.46;83.76
78459;BME280;67753;42.684;23.330;2023-02-15T00:51:06;96199.25;;;1.43;83.80
78459;BME280;67753;42.684;23.330;2023-02-15T00:53:08;96192.91;;;1.39;83.95
78459;BME280;67753;42.684;23.330;2023-02-15T00:55:10;96200.34;;;1.37;83.86
78459;BME280;67753;42.684;23.330;2023-02-15T00:57:14;96193.44;;;1.36;84.33
78459;BME280;67753;42.684;23.330;2023-02-15T00:59:17;96192.13;;;1.38;84.76
78459;BME280;67753;42.684;23.330;2023-02-15T01:01:23;96191.84;;;1.45;84.23
78459;BME280;67753;42.684;23.330;2023-02-15T01:03:28;96196.06;;;1.41;84.15
78459;BME280;67753;42.684;23.330;2023-02-15T01:05:30;96187.63;;;1.49;83.63
78459;BME280;67753;42.684;23.330;2023-02-15T01:07:32;96182.34;;;1.44;84.05
78459;BME280;67753;42.684;23.330;2023-02-15T01:09:34;96177.06;;;1.49;83.73
78459;BME280;67753;42.684;23.330;2023-02-15T01:11:36;96183.66;;;1.36;84.16
78459;BME280;67753;42.684;23.330;2023-02-15T01:13:38;96193.19;;;1.32;84.54
78459;BME280;67753;42.684;23.330;2023-02-15T01:15:43;96191.59;;;1.21;85.76
78459;BME280;67753;42.684;23.330;2023-02-15T01:17:46;96191.34;;;1.38;84.49
78459;BME280;67753;42.684;23.330;2023-02-15T01:19:52;96184.47;;;1.52;83.85
78459;BME280;67753;42.684;23.330;2023-02-15T01:21:54;96191.34;;;1.38;84.38
78459;BME280;67753;42.684;23.330;2023-02-15T01:23:56;96182.09;;;1.40;84.25
78459;BME280;67753;42.684;23.330;2023-02-15T01:26:01;96174.94;;;1.41;84.18
78459;BME280;67753;42.684;23.330;2023-02-15T01:28:04;96171.81;;;1.39;84.33
78459;BME280;67753;42.684;23.330;2023-02-15T01:30:07;96178.94;;;1.43;84.30
78459;BME280;67753;42.684;23.330;2023-02-15T01:32:10;96180.78;;;1.38;84.87
78459;BME280;67753;42.684;23.330;2023-02-15T01:34:13;96173.38;;;1.40;84.46
78459;BME280;67753;42.684;23.330;2023-02-15T01:36:15;96166.53;;;1.28;85.04
78459;BME280;67753;42.684;23.330;2023-02-15T01:38:17;96169.44;;;1.37;84.79
78459;BME280;67753;42.684;23.330;2023-02-15T01:40:19;96170.75;;;1.35;84.99
78459;BME280;67753;42.684;23.330;2023-02-15T01:42:21;96162.53;;;1.36;85.22
78459;BME280;67753;42.684;23.330;2023-02-15T01:44:46;96170.19;;;1.48;84.56
78459;BME280;67753;42.684;23.330;2023-02-15T01:46:51;96167.59;;;1.38;85.26
78459;BME280;67753;42.684;23.330;2023-02-15T01:50:22;96165.19;;;1.31;85.64
78459;BME280;67753;42.684;23.330;2023-02-15T01:52:25;96159.13;;;1.31;85.56
78459;BME280;67753;42.684;23.330;2023-02-15T01:54:31;96163.91;;;1.13;86.52
78459;BME280;67753;42.684;23.330;2023-02-15T01:56:35;96153.59;;;1.22;86.88
78459;BME280;67753;42.684;23.330;2023-02-15T01:58:39;96150.16;;;1.21;86.34
78459;BME280;67753;42.684;23.330;2023-02-15T02:00:42;96153.88;;;1.20;86.75
78459;BME280;67753;42.684;23.330;2023-02-15T02:02:47;96150.44;;;1.05;87.56
78459;BME280;67753;42.684;23.330;2023-02-15T02:04:51;96149.38;;;1.21;87.08
78459;BME280;67753;42.684;23.330;2023-02-15T02:06:58;96151.75;;;1.27;86.75
78459;BME280;67753;42.684;23.330;2023-02-15T02:09:00;96149.63;;;1.35;86.31
78459;BME280;67753;42.684;23.330;2023-02-15T02:11:09;96153.34;;;1.23;86.80
78459;BME280;67753;42.684;23.330;2023-02-15T02:13:13;96149.13;;;1.22;87.20
78459;BME280;67753;42.684;23.330;2023-02-15T02:15:16;96153.59;;;1.12;87.32
78459;BME280;67753;42.684;23.330;2023-02-15T02:17:23;96153.59;;;1.07;88.08
78459;BME280;67753;42.684;23.330;2023-02-15T02:20:13;96157.31;;;1.06;88.33
78459;BME280;67753;42.684;23.330;2023-02-15T02:22:44;96168.13;;;1.19;88.06
78459;BME280;67753;42.684;23.330;2023-02-15T02:25:07;96170.25;;;1.27;87.60
78459;BME280;67753;42.684;23.330;2023-02-15T02:27:29;96172.84;;;1.43;86.72
78459;BME280;67753;42.684;23.330;2023-02-15T02:29:47;96169.69;;;1.51;85.82
78459;BME280;67753;42.684;23.330;2023-02-15T02:34:39;96165.44;;;1.40;86.36
78459;BME280;67753;42.684;23.330;2023-02-15T02:36:49;96168.63;;;1.42;86.32
78459;BME280;67753;42.684;23.330;2023-02-15T02:39:03;96166.50;;;1.49;86.06
78459;BME280;67753;42.684;23.330;2023-02-15T02:41:15;96179.72;;;1.44;86.29
78459;BME280;67753;42.684;23.330;2023-02-15T02:43:21;96163.59;;;1.50;86.39
78459;BME280;67753;42.684;23.330;2023-02-15T02:45:35;96167.03;;;1.51;86.24
78459;BME280;67753;42.684;23.330;2023-02-15T02:47:44;96170.72;;;1.45;86.18
78459;BME280;67753;42.684;23.330;2023-02-15T02:49:52;96170.19;;;1.48;86.51
78459;BME280;67753;42.684;23.330;2023-02-15T02:51:58;96165.41;;;1.55;86.26
78459;BME280;67753;42.684;23.330;2023-02-15T02:54:05;96170.72;;;1.60;85.57
78459;BME280;67753;42.684;23.330;2023-02-15T02:56:14;96174.66;;;1.68;85.20
78459;BME280;67753;42.684;23.330;2023-02-15T02:58:23;96172.53;;;1.75;84.67
78459;BME280;67753;42.684;23.330;2023-02-15T03:00:30;96178.31;;;1.77;84.28
78459;BME280;67753;42.684;23.330;2023-02-15T03:02:37;96178.06;;;1.84;84.02
78459;BME280;67753;42.684;23.330;2023-02-15T03:04:41;96185.44;;;1.82;83.97
78459;BME280;67753;42.684;23.330;2023-02-15T03:06:50;96190.22;;;1.85;84.09
78459;BME280;67753;42.684;23.330;2023-02-15T03:09:00;96192.84;;;1.85;83.93
78459;BME280;67753;42.684;23.330;2023-02-15T03:11:03;96183.84;;;1.91;83.62
78459;BME280;67753;42.684;23.330;2023-02-15T03:13:06;96191.50;;;1.92;83.32
78459;BME280;67753;42.684;23.330;2023-02-15T03:15:11;96196.00;;;1.92;83.33
78459;BME280;67753;42.684;23.330;2023-02-15T03:17:20;96198.91;;;1.90;83.42
78459;BME280;67753;42.684;23.330;2023-02-15T03:19:25;96188.03;;;1.97;83.37
78459;BME280;67753;42.684;23.330;2023-02-15T03:21:33;96189.66;;;1.98;83.22
78459;BME280;67753;42.684;23.330;2023-02-15T03:23:39;96186.97;;;2.03;82.96
78459;BME280;67753;42.684;23.330;2023-02-15T03:25:43;96193.84;;;2.04;83.05
78459;BME280;67753;42.684;23.330;2023-02-15T03:27:58;96197.00;;;2.06;83.04
78459;BME280;67753;42.684;23.330;2023-02-15T03:30:02;96191.19;;;2.09;82.98
78459;BME280;67753;42.684;23.330;2023-02-15T03:32:10;96197.03;;;2.01;83.50
78459;BME280;67753;42.684;23.330;2023-02-15T03:34:13;96191.72;;;2.06;83.15
78459;BME280;67753;42.684;23.330;2023-02-15T03:36:20;96181.94;;;2.07;83.25
78459;BME280;67753;42.684;23.330;2023-02-15T03:38:29;96185.91;;;2.09;83.26
78459;BME280;67753;42.684;23.330;2023-02-15T03:40:38;96194.34;;;2.06;83.42
78459;BME280;67753;42.684;23.330;2023-02-15T03:43:01;96185.91;;;2.09;83.67
78459;BME280;67753;42.684;23.330;2023-02-15T03:45:09;96186.44;;;2.06;83.41
78459;BME280;67753;42.684;23.330;2023-02-15T03:47:15;96188.78;;;2.13;83.02
78459;BME280;67753;42.684;23.330;2023-02-15T03:49:22;96193.28;;;2.12;83.30
78459;BME280;67753;42.684;23.330;2023-02-15T03:51:31;96186.97;;;2.08;83.31
78459;BME280;67753;42.684;23.330;2023-02-15T03:53:33;96187.47;;;2.10;83.08
78459;BME280;67753;42.684;23.330;2023-02-15T03:55:40;96190.66;;;2.12;83.20
78459;BME280;67753;42.684;23.330;2023-02-15T03:57:43;96176.38;;;2.13;83.14
78459;BME280;67753;42.684;23.330;2023-02-15T04:00:05;96188.53;;;2.14;82.90
78459;BME280;67753;42.684;23.330;2023-02-15T04:02:28;96189.03;;;2.16;82.90
78459;BME280;67753;42.684;23.330;2023-02-15T04:04:35;96192.22;;;2.13;82.94
78459;BME280;67753;42.684;23.330;2023-02-15T04:06:37;96184.81;;;2.15;82.42
78459;BME280;67753;42.684;23.330;2023-02-15T04:08:39;96186.38;;;2.16;82.67
78459;BME280;67753;42.684;23.330;2023-02-15T04:11:00;96196.97;;;2.16;82.91
78459;BME280;67753;42.684;23.330;2023-02-15T04:13:02;96200.66;;;2.20;82.64
78459;BME280;67753;42.684;23.330;2023-02-15T04:15:06;96200.41;;;2.22;82.57
78459;BME280;67753;42.684;23.330;2023-02-15T04:17:25;96209.09;;;2.27;82.53
78459;BME280;67753;42.684;23.330;2023-02-15T04:19:27;96207.53;;;2.26;82.42
78459;BME280;67753;42.684;23.330;2023-02-15T04:21:46;96210.97;;;2.22;82.23
78459;BME280;67753;42.684;23.330;2023-02-15T04:24:06;96219.69;;;2.22;82.48
78459;BME280;67753;42.684;23.330;2023-02-15T04:26:27;96214.13;;;2.24;82.59
78459;BME280;67753;42.684;23.330;2023-02-15T04:28:29;96221.00;;;2.25;82.34
78459;BME280;67753;42.684;23.330;2023-02-15T04:30:31;96231.31;;;2.26;82.36
78459;BME280;67753;42.684;23.330;2023-02-15T04:32:34;96234.47;;;2.28;82.38
78459;BME280;67753;42.684;23.330;2023-02-15T04:34:36;96226.53;;;2.28;82.34
78459;BME280;67753;42.684;23.330;2023-02-15T04:36:37;96239.75;;;2.28;82.36
78459;BME280;67753;42.684;23.330;2023-02-15T04:38:39;96236.59;;;2.26;82.87
78459;BME280;67753;42.684;23.330;2023-02-15T04:40:41;96226.53;;;2.28;82.71
78459;BME280;67753;42.684;23.330;2023-02-15T04:42:47;96240.03;;;2.27;82.69
78459;BME280;67753;42.684;23.330;2023-02-15T04:44:49;96237.63;;;2.25;82.60
78459;BME280;67753;42.684;23.330;2023-02-15T04:46:51;96229.72;;;2.25;82.72
78459;BME280;67753;42.684;23.330;2023-02-15T04:48:53;96225.75;;;2.28;82.72
78459;BME280;67753;42.684;23.330;2023-02-15T04:50:55;96221.00;;;2.25;83.08
78459;BME280;67753;42.684;23.330;2023-02-15T04:53:00;96228.13;;;2.29;82.57
78459;BME280;67753;42.684;23.330;2023-02-15T04:55:02;96238.66;;;2.35;82.68
78459;BME280;67753;42.684;23.330;2023-02-15T04:57:05;96233.41;;;2.29;83.22
78459;BME280;67753;42.684;23.330;2023-02-15T04:59:10;96241.09;;;2.31;82.84
78459;BME280;67753;42.684;23.330;2023-02-15T05:01:13;96239.22;;;2.37;82.92
78459;BME280;67753;42.684;23.330;2023-02-15T05:03:15;96253.50;;;2.36;82.61
78459;BME280;67753;42.684;23.330;2023-02-15T05:05:18;96236.00;;;2.45;82.11
78459;BME280;67753;42.684;23.330;2023-02-15T05:07:20;96240.78;;;2.38;82.45
78459;BME280;67753;42.684;23.330;2023-02-15T05:09:22;96244.50;;;2.37;82.32
78459;BME280;67753;42.684;23.330;2023-02-15T05:11:24;96242.34;;;2.39;82.54
78459;BME280;67753;42.684;23.330;2023-02-15T05:13:26;96246.56;;;2.40;82.16
78459;BME280;67753;42.684;23.330;2023-02-15T05:15:30;96249.22;;;2.40;82.37
78459;BME280;67753;42.684;23.330;2023-02-15T05:17:32;96251.34;;;2.43;82.00
78459;BME280;67753;42.684;23.330;2023-02-15T05:19:35;96254.25;;;2.41;82.13
78459;BME280;67753;42.684;23.330;2023-02-15T05:21:38;96260.63;;;2.40;82.15
78459;BME280;67753;42.684;23.330;2023-02-15T05:23:45;96256.66;;;2.38;82.14
78459;BME280;67753;42.684;23.330;2023-02-15T05:25:47;96252.66;;;2.45;81.95
78459;BME280;67753;42.684;23.330;2023-02-15T05:28:08;96280.44;;;2.43;81.87
78459;BME280;67753;42.684;23.330;2023-02-15T05:30:22;96278.84;;;2.42;81.94
78459;BME280;67753;42.684;23.330;2023-02-15T05:32:26;96273.03;;;2.40;82.14
78459;BME280;67753;42.684;23.330;2023-02-15T05:34:29;96267.72;;;2.50;81.65
78459;BME280;67753;42.684;23.330;2023-02-15T05:36:31;96284.63;;;2.49;81.71
78459;BME280;67753;42.684;23.330;2023-02-15T05:38:34;96287.06;;;2.45;81.84
78459;BME280;67753;42.684;23.330;2023-02-15T05:40:37;96278.03;;;2.46;82.01
78459;BME280;67753;42.684;23.330;2023-02-15T05:42:39;96287.81;;;2.56;81.63
78459;BME280;67753;42.684;23.330;2023-02-15T05:44:41;96280.16;;;2.54;81.25
78459;BME280;67753;42.684;23.330;2023-02-15T05:46:43;96271.66;;;2.58;81.28
78459;BME280;67753;42.684;23.330;2023-02-15T05:48:47;96283.81;;;2.59;80.87
78459;BME280;67753;42.684;23.330;2023-02-15T05:50:57;96280.41;;;2.53;81.13
78459;BME280;67753;42.684;23.330;2023-02-15T05:52:59;96292.03;;;2.57;81.06
78459;BME280;67753;42.684;23.330;2023-02-15T05:55:02;96286.75;;;2.52;81.14
78459;BME280;67753;42.684;23.330;2023-02-15T05:57:07;96282.47;;;2.61;80.97
78459;BME280;67753;42.684;23.330;2023-02-15T05:59:09;96274.00;;;2.69;80.60
78459;BME280;67753;42.684;23.330;2023-02-15T06:01:14;96276.06;;;2.72;80.68
78459;BME280;67753;42.684;23.330;2023-02-15T06:03:17;96280.31;;;2.73;80.11
78459;BME280;67753;42.684;23.330;2023-02-15T06:05:22;96275.81;;;2.74;79.99
78459;BME280;67753;42.684;23.330;2023-02-15T06:07:24;96288.72;;;2.86;79.66
78459;BME280;67753;42.684;23.330;2023-02-15T06:09:26;96281.88;;;2.79;79.59
78459;BME280;67753;42.684;23.330;2023-02-15T06:11:29;96278.09;;;2.91;79.20
78459;BME280;67753;42.684;23.330;2023-02-15T06:13:31;96280.78;;;2.86;79.17
78459;BME280;67753;42.684;23.330;2023-02-15T06:15:35;96283.44;;;2.86;79.04
78459;BME280;67753;42.684;23.330;2023-02-15T06:17:37;96284.78;;;2.83;79.06
78459;BME280;67753;42.684;23.330;2023-02-15T06:19:39;96284.16;;;2.96;78.63
78459;BME280;67753;42.684;23.330;2023-02-15T06:21:43;96294.28;;;2.84;78.72
78459;BME280;67753;42.684;23.330;2023-02-15T06:23:45;96303.03;;;2.85;78.71
78459;BME280;67753;42.684;23.330;2023-02-15T06:25:47;96294.50;;;2.98;78.59
78459;BME280;67753;42.684;23.330;2023-02-15T06:27:49;96285.00;;;2.87;78.23
78459;BME280;67753;42.684;23.330;2023-02-15T06:29:53;96292.38;;;2.95;78.47
78459;BME280;67753;42.684;23.330;2023-02-15T06:31:55;96293.97;;;2.96;78.49
78459;BME280;67753;42.684;23.330;2023-02-15T06:33:57;96294.47;;;3.03;77.99
78459;BME280;67753;42.684;23.330;2023-02-15T06:36:01;96291.78;;;3.08;77.85
78459;BME280;67753;42.684;23.330;2023-02-15T06:38:05;96285.91;;;3.16;77.25
78459;BME280;67753;42.684;23.330;2023-02-15T06:40:08;96289.41;;;3.06;77.24
78459;BME280;67753;42.684;23.330;2023-02-15T06:42:11;96298.16;;;3.07;77.04
78459;BME280;67753;42.684;23.330;2023-02-15T06:44:13;96292.81;;;3.12;77.45
78459;BME280;67753;42.684;23.330;2023-02-15T06:46:15;96292.28;;;3.10;77.11
78459;BME280;67753;42.684;23.330;2023-02-15T06:48:17;96284.78;;;3.27;76.67
78459;BME280;67753;42.684;23.330;2023-02-15T06:50:19;96292.66;;;3.38;76.55
78459;BME280;67753;42.684;23.330;2023-02-15T06:52:23;96292.16;;;3.36;76.02
78459;BME280;67753;42.684;23.330;2023-02-15T06:54:28;96295.22;;;3.48;76.40
78459;BME280;67753;42.684;23.330;2023-02-15T06:56:30;96291.66;;;3.28;76.09
78459;BME280;67753;42.684;23.330;2023-02-15T06:58:32;96289.53;;;3.30;75.83
78459;BME280;67753;42.684;23.330;2023-02-15T07:00:34;96297.88;;;3.48;75.64
78459;BME280;67753;42.684;23.330;2023-02-15T07:02:38;96295.38;;;3.27;75.54
78459;BME280;67753;42.684;23.330;2023-02-15T07:04:40;96290.00;;;3.38;74.84
78459;BME280;67753;42.684;23.330;2023-02-15T07:06:42;96289.53;;;3.30;75.37
78459;BME280;67753;42.684;23.330;2023-02-15T07:08:44;96291.53;;;3.49;74.23
78459;BME280;67753;42.684;23.330;2023-02-15T07:10:48;96292.47;;;3.63;74.88
78459;BME280;67753;42.684;23.330;2023-02-15T07:12:50;96294.34;;;3.92;73.32
78459;BME280;67753;42.684;23.330;2023-02-15T07:14:51;96297.81;;;3.58;73.31
78459;BME280;67753;42.684;23.330;2023-02-15T07:16:53;96292.94;;;3.70;73.64
78459;BME280;67753;42.684;23.330;2023-02-15T07:18:55;96300.25;;;4.13;72.95
78459;BME280;67753;42.684;23.330;2023-02-15T07:20:57;96311.94;;;3.82;72.73
78459;BME280;67753;42.684;23.330;2023-02-15T07:22:59;96304.13;;;3.67;73.51
78459;BME280;67753;42.684;23.330;2023-02-15T07:25:01;96303.09;;;4.21;72.49
78459;BME280;67753;42.684;23.330;2023-02-15T07:27:06;96313.50;;;3.83;72.52
78459;BME280;67753;42.684;23.330;2023-02-15T07:29:08;96306.16;;;3.75;72.65
78459;BME280;67753;42.684;23.330;2023-02-15T07:31:10;96303.28;;;4.01;72.16
78459;BME280;67753;42.684;23.330;2023-02-15T07:33:12;96310.56;;;4.19;71.46
78459;BME280;67753;42.684;23.330;2023-02-15T07:35:27;96299.94;;;4.19;71.27
78459;BME280;67753;42.684;23.330;2023-02-15T07:37:29;96290.66;;;4.17;71.03
78459;BME280;67753;42.684;23.330;2023-02-15T07:39:32;96298.81;;;4.25;70.77
78459;BME280;67753;42.684;23.330;2023-02-15T07:41:34;96293.72;;;4.05;70.69
78459;BME280;67753;42.684;23.330;2023-02-15T07:43:40;96294.97;;;4.36;70.84
78459;BME280;67753;42.684;23.330;2023-02-15T07:45:42;96300.50;;;4.64;69.64
78459;BME280;67753;42.684;23.330;2023-02-15T07:47:45;96284.44;;;4.02;70.72
78459;BME280;67753;42.684;23.330;2023-02-15T07:49:47;96284.91;;;4.09;70.90
78459;BME280;67753;42.684;23.330;2023-02-15T07:51:50;96293.19;;;4.03;71.05
78459;BME280;67753;42.684;23.330;2023-02-15T07:53:51;96283.06;;;4.10;70.67
78459;BME280;67753;42.684;23.330;2023-02-15T07:55:54;96291.81;;;4.34;70.47
78459;BME280;67753;42.684;23.330;2023-02-15T07:57:58;96298.69;;;4.12;70.72
78459;BME280;67753;42.684;23.330;2023-02-15T08:00:01;96287.28;;;4.59;69.94
78459;BME280;67753;42.684;23.330;2023-02-15T08:02:05;96279.59;;;4.81;69.21
78459;BME280;67753;42.684;23.330;2023-02-15T08:04:07;96295.03;;;4.98;67.82
78459;BME280;67753;42.684;23.330;2023-02-15T08:06:09;96293.84;;;4.43;69.54
78459;BME280;67753;42.684;23.330;2023-02-15T08:08:14;96292.47;;;4.21;70.18
78459;BME280;67753;42.684;23.330;2023-02-15T08:10:47;96294.28;;;4.50;69.77
78459;BME280;67753;42.684;23.330;2023-02-15T08:13:06;96295.25;;;4.59;69.38
78459;BME280;67753;42.684;23.330;2023-02-15T08:15:09;96292.84;;;4.39;69.65
78459;BME280;67753;42.684;23.330;2023-02-15T08:17:11;96295.75;;;4.61;68.75
78459;BME280;67753;42.684;23.330;2023-02-15T08:19:14;96301.88;;;4.38;69.17
78459;BME280;67753;42.684;23.330;2023-02-15T08:21:17;96295.41;;;4.20;69.53
78459;BME280;67753;42.684;23.330;2023-02-15T08:23:19;96302.94;;;4.36;68.93
78459;BME280;67753;42.684;23.330;2023-02-15T08:25:22;96302.88;;;4.42;69.15
78459;BME280;67753;42.684;23.330;2023-02-15T08:27:26;96295.53;;;4.33;69.48
78459;BME280;67753;42.684;23.330;2023-02-15T08:29:29;96296.56;;;4.61;68.92
78459;BME280;67753;42.684;23.330;2023-02-15T08:31:32;96300.97;;;4.47;68.95
78459;BME280;67753;42.684;23.330;2023-02-15T08:33:36;96304.34;;;4.53;68.87
78459;BME280;67753;42.684;23.330;2023-02-15T08:35:39;96303.41;;;4.44;69.11
78459;BME280;67753;42.684;23.330;2023-02-15T08:37:41;96303.88;;;4.46;69.03
78459;BME280;67753;42.684;23.330;2023-02-15T08:39:43;96297.47;;;4.52;69.12
78459;BME280;67753;42.684;23.330;2023-02-15T08:41:47;96303.44;;;4.86;67.79
78459;BME280;67753;42.684;23.330;2023-02-15T08:43:52;96307.38;;;4.65;67.81
78459;BME280;67753;42.684;23.330;2023-02-15T08:45:55;96316.69;;;4.86;67.62
78459;BME280;67753;42.684;23.330;2023-02-15T08:47:57;96303.66;;;4.90;67.18
78459;BME280;67753;42.684;23.330;2023-02-15T08:50:00;96302.81;;;5.51;65.23
78459;BME280;67753;42.684;23.330;2023-02-15T08:52:01;96296.41;;;4.96;65.85
78459;BME280;67753;42.684;23.330;2023-02-15T08:54:05;96298.22;;;5.00;66.14
78459;BME280;67753;42.684;23.330;2023-02-15T08:56:09;96308.22;;;4.84;66.20
78459;BME280;67753;42.684;23.330;2023-02-15T08:58:12;96299.94;;;5.29;65.18
78459;BME280;67753;42.684;23.330;2023-02-15T09:00:17;96297.06;;;5.44;64.24
78459;BME280;67753;42.684;23.330;2023-02-15T09:02:20;96307.44;;;4.84;65.74
78459;BME280;67753;42.684;23.330;2023-02-15T09:04:22;96304.03;;;5.21;64.91
78459;BME280;67753;42.684;23.330;2023-02-15T09:06:25;96308.28;;;4.79;65.92
78459;BME280;67753;42.684;23.330;2023-02-15T09:08:28;96317.91;;;5.18;64.62
78459;BME280;67753;42.684;23.330;2023-02-15T09:10:30;96312.91;;;4.93;64.84
78459;BME280;67753;42.684;23.330;2023-02-15T09:12:32;96309.06;;;5.04;64.71
78459;BME280;67753;42.684;23.330;2023-02-15T09:14:36;96307.03;;;5.71;63.34
78459;BME280;67753;42.684;23.330;2023-02-15T09:16:40;96295.53;;;5.57;63.21
78459;BME280;67753;42.684;23.330;2023-02-15T09:18:45;96293.41;;;5.40;62.90
78459;BME280;67753;42.684;23.330;2023-02-15T09:20:48;96302.72;;;5.75;62.38
78459;BME280;67753;42.684;23.330;2023-02-15T09:22:51;96307.13;;;5.47;63.59
78459;BME280;67753;42.684;23.330;2023-02-15T09:24:54;96301.44;;;5.16;63.43
78459;BME280;67753;42.684;23.330;2023-02-15T09:26:57;96332.41;;;5.26;63.37
78459;BME280;67753;42.684;23.330;2023-02-15T09:29:00;96303.94;;;5.45;63.18
78459;BME280;67753;42.684;23.330;2023-02-15T09:31:05;96310.78;;;5.70;62.32
78459;BME280;67753;42.684;23.330;2023-02-15T09:33:09;96310.19;;;5.35;62.84
78459;BME280;67753;42.684;23.330;2023-02-15T09:35:11;96308.19;;;5.65;62.52
78459;BME280;67753;42.684;23.330;2023-02-15T09:37:13;96310.19;;;5.35;62.67
78459;BME280;67753;42.684;23.330;2023-02-15T09:39:18;96301.09;;;5.42;63.56
78459;BME280;67753;42.684;23.330;2023-02-15T09:41:39;96300.69;;;5.67;62.40
78459;BME280;67753;42.684;23.330;2023-02-15T09:43:50;96313.88;;;6.10;61.31
78459;BME280;67753;42.684;23.330;2023-02-15T09:46:15;96313.19;;;5.85;61.95
78459;BME280;67753;42.684;23.330;2023-02-15T09:48:40;96309.31;;;5.59;63.31
78459;BME280;67753;42.684;23.330;2023-02-15T09:50:51;96300.66;;;5.53;62.61
78459;BME280;67753;42.684;23.330;2023-02-15T09:53:10;96298.97;;;5.76;62.68
78459;BME280;67753;42.684;23.330;2023-02-15T09:55:27;96303.72;;;6.12;61.39
78459;BME280;67753;42.684;23.330;2023-02-15T09:57:38;96299.13;;;5.66;62.49
78459;BME280;67753;42.684;23.330;2023-02-15T09:59:51;96294.66;;;6.13;61.37
78459;BME280;67753;42.684;23.330;2023-02-15T10:02:13;96296.59;;;5.75;61.19
78459;BME280;67753;42.684;23.330;2023-02-15T10:04:39;96293.97;;;6.35;59.62
78459;BME280;67753;42.684;23.330;2023-02-15T10:06:54;96297.16;;;6.51;59.93
78459;BME280;67753;42.684;23.330;2023-02-15T10:09:22;96300.91;;;6.77;59.15
78459;BME280;67753;42.684;23.330;2023-02-15T10:11:40;96294.00;;;6.62;58.56
78459;BME280;67753;42.684;23.330;2023-02-15T10:13:59;96293.63;;;6.69;59.16
78459;BME280;67753;42.684;23.330;2023-02-15T10:16:16;96292.56;;;6.10;59.64
78459;BME280;67753;42.684;23.330;2023-02-15T10:18:38;96281.56;;;5.84;59.64
78459;BME280;67753;42.684;23.330;2023-02-15T10:20:54;96288.53;;;5.99;59.74
78459;BME280;67753;42.684;23.330;2023-02-15T10:23:09;96289.22;;;7.01;58.25
78459;BME280;67753;42.684;23.330;2023-02-15T10:25:29;96280.00;;;6.71;57.72
78459;BME280;67753;42.684;23.330;2023-02-15T10:27:41;96274.84;;;6.19;59.69
78459;BME280;67753;42.684;23.330;2023-02-15T10:29:53;96292.63;;;6.37;58.73
78459;BME280;67753;42.684;23.330;2023-02-15T10:32:08;96274.09;;;6.60;59.53
78459;BME280;67753;42.684;23.330;2023-02-15T10:34:16;96284.75;;;6.60;58.61
78459;BME280;67753;42.684;23.330;2023-02-15T10:36:33;96275.34;;;6.76;58.58
78459;BME280;67753;42.684;23.330;2023-02-15T10:38:42;96266.28;;;7.27;57.79
78459;BME280;67753;42.684;23.330;2023-02-15T10:40:59;96267.97;;;6.73;57.88
78459;BME280;67753;42.684;23.330;2023-02-15T10:43:19;96246.38;;;6.33;59.33
78459;BME280;67753;42.684;23.330;2023-02-15T10:45:28;96254.75;;;6.13;59.59
78459;BME280;67753;42.684;23.330;2023-02-15T10:47:45;96259.19;;;6.18;59.89
78459;BME280;67753;42.684;23.330;2023-02-15T10:50:06;96257.88;;;6.98;59.02
78459;BME280;67753;42.684;23.330;2023-02-15T10:52:25;96247.88;;;7.39;56.99
78459;BME280;67753;42.684;23.330;2023-02-15T10:54:37;96273.31;;;6.46;59.19
78459;BME280;67753;42.684;23.330;2023-02-15T10:56:49;96255.31;;;5.96;60.59
78459;BME280;67753;42.684;23.330;2023-02-15T10:59:10;96254.41;;;5.68;61.40
78459;BME280;67753;42.684;23.330;2023-02-15T11:01:20;96254.75;;;6.13;61.29
78459;BME280;67753;42.684;23.330;2023-02-15T11:03:36;96248.00;;;6.02;60.42
78459;BME280;67753;42.684;23.330;2023-02-15T11:05:45;96252.59;;;6.70;59.27
78459;BME280;67753;42.684;23.330;2023-02-15T11:07:56;96251.66;;;6.88;58.06
78459;BME280;67753;42.684;23.330;2023-02-15T11:10:06;96236.06;;;6.96;58.35
78459;BME280;67753;42.684;23.330;2023-02-15T11:12:16;96256.53;;;6.18;60.29
78459;BME280;67753;42.684;23.330;2023-02-15T11:14:27;96247.78;;;5.84;61.51